Time;durP1;ratioP1;P1;durP2;ratioP2;P2;SDS_P1;SDS_P2;PMS_P1;PMS_P2;Temp;Humidity;BMP_temperature;BMP_pressure;BME280_temperature;BME280_humidity;BME280_pressure;Samples;Min_cycle;Max_cycle;Signal;HPM_P1;HPM_P2
2021/08/20 00:01:17;;;;;;;11.18;2.13;;;;;;;18.07;69.39;100215.97;126223;1092;22863;-61
2021/08/20 00:03:50;;;;;;;5.90;1.77;;;;;;;18.05;69.51;100213.68;126209;1092;27163;-55
2021/08/20 00:06:21;;;;;;;6.40;1.90;;;;;;;18.06;69.72;100217.28;126290;1093;22732;-58
2021/08/20 00:08:52;;;;;;;7.10;2.10;;;;;;;18.02;69.40;100209.08;126058;1092;24458;-55
2021/08/20 00:11:25;;;;;;;9.77;2.93;;;;;;;18.03;69.29;100216.27;126038;1092;22752;-57
2021/08/20 00:13:59;;;;;;;8.93;2.00;;;;;;;18.02;69.67;100217.55;126189;1093;22934;-58
2021/08/20 00:16:30;;;;;;;6.00;1.80;;;;;;;18.02;69.85;100209.08;126286;1093;22755;-55
2021/08/20 00:19:03;;;;;;;9.85;2.60;;;;;;;18.03;69.64;100209.84;126176;1092;22878;-54
2021/08/20 00:21:35;;;;;;;11.00;2.60;;;;;;;18.01;69.88;100199.09;126418;1092;22770;-55
2021/08/20 00:24:10;;;;;;;11.10;2.10;;;;;;;18.02;69.95;100206.25;126219;1093;22963;-55
2021/08/20 00:26:42;;;;;;;12.43;2.40;;;;;;;18.01;69.96;100199.09;126120;1093;22925;-59
2021/08/20 00:29:13;;;;;;;11.05;2.50;;;;;;;18.01;69.78;100201.91;126142;1093;22805;-55
2021/08/20 00:31:45;;;;;;;11.53;3.00;;;;;;;17.99;69.97;100201.69;125989;1093;22771;-56
2021/08/20 00:34:17;;;;;;;11.35;2.60;;;;;;;17.96;70.00;100210.47;125896;1092;23563;-57
2021/08/20 00:36:49;;;;;;;11.53;3.60;;;;;;;17.95;69.85;100201.22;125905;1092;22723;-58
2021/08/20 00:39:20;;;;;;;16.60;3.40;;;;;;;17.92;70.19;100199.45;126253;1093;24467;-55
2021/08/20 00:41:54;;;;;;;10.27;2.73;;;;;;;17.92;70.22;100198.70;126200;1093;22805;-55
2021/08/20 00:44:25;;;;;;;9.75;2.05;;;;;;;17.93;70.00;100200.22;126313;1093;27320;-57
2021/08/20 00:46:57;;;;;;;11.20;3.00;;;;;;;17.92;70.36;100202.27;126134;1091;25698;-60
2021/08/20 00:49:29;;;;;;;11.93;2.07;;;;;;;17.92;70.04;100199.45;126142;1093;22952;-55
2021/08/20 00:52:01;;;;;;;6.40;2.23;;;;;;;17.91;70.57;100205.63;126395;1093;22800;-55
2021/08/20 00:54:34;;;;;;;9.13;2.40;;;;;;;17.89;70.05;100205.40;126158;1093;24612;-56
2021/08/20 00:57:08;;;;;;;6.85;1.95;;;;;;;17.88;70.39;100213.09;126170;1093;26283;-58
2021/08/20 00:59:40;;;;;;;10.73;2.43;;;;;;;17.87;70.35;100203.11;126210;1093;22787;-58
2021/08/20 01:02:11;;;;;;;10.65;2.40;;;;;;;17.87;70.42;100203.11;126280;1092;22752;-56
2021/08/20 01:04:43;;;;;;;7.80;2.47;;;;;;;17.86;70.48;100198.74;126186;1093;22774;-55
2021/08/20 01:07:16;;;;;;;10.73;2.70;;;;;;;17.86;70.69;100198.74;126075;1093;24939;-55
2021/08/20 01:09:49;;;;;;;10.00;2.43;;;;;;;17.86;70.80;100203.65;126111;1093;22850;-56
2021/08/20 01:12:20;;;;;;;9.57;2.67;;;;;;;17.85;70.40;100204.93;126093;1093;22770;-56
2021/08/20 01:14:52;;;;;;;7.00;2.30;;;;;;;17.85;70.47;100202.11;126058;1093;22822;-57
2021/08/20 01:17:24;;;;;;;9.43;2.20;;;;;;;17.84;70.78;100204.16;126159;1092;22740;-57
2021/08/20 01:19:57;;;;;;;8.63;2.27;;;;;;;17.83;70.79;100205.47;126120;1093;24298;-58
2021/08/20 01:22:29;;;;;;;10.30;2.60;;;;;;;17.83;70.98;100205.47;126211;1093;23247;-57
2021/08/20 01:25:02;;;;;;;7.80;1.90;;;;;;;17.83;70.61;100208.30;126192;1092;22770;-58
2021/08/20 01:27:36;;;;;;;8.83;2.50;;;;;;;17.83;71.07;100210.34;126330;1093;25761;-58
2021/08/20 01:30:10;;;;;;;7.90;2.10;;;;;;;17.83;71.06;100215.99;126172;1093;27247;-56
2021/08/20 01:32:43;;;;;;;7.60;2.10;;;;;;;17.79;71.24;100219.13;126164;1093;22776;-59
2021/08/20 01:35:14;;;;;;;7.10;1.90;;;;;;;17.76;70.78;100211.70;126221;1093;22797;-54
2021/08/20 01:37:46;;;;;;;8.40;2.33;;;;;;;17.74;70.84;100209.41;126230;1093;22793;-59
2021/08/20 01:40:17;;;;;;;8.33;2.07;;;;;;;17.73;71.14;100202.22;126087;1091;27150;-61
2021/08/20 01:42:49;;;;;;;7.40;2.10;;;;;;;17.73;71.40;100212.77;126246;1092;22824;-55
2021/08/20 01:45:21;;;;;;;8.33;2.13;;;;;;;17.72;71.43;100206.35;126255;1093;25566;-56
2021/08/20 01:47:52;;;;;;;7.27;2.10;;;;;;;17.72;71.16;100206.35;126150;1092;22787;-58
2021/08/20 01:50:25;;;;;;;9.70;2.70;;;;;;;17.72;71.35;100214.05;126094;1092;25730;-58
2021/08/20 01:52:56;;;;;;;8.10;2.30;;;;;;;17.72;71.20;100214.05;126215;1092;22770;-59
2021/08/20 01:55:28;;;;;;;10.90;2.50;;;;;;;17.71;71.14;100213.28;126056;1093;26068;-55
2021/08/20 01:57:59;;;;;;;10.05;2.35;;;;;;;17.70;71.63;100216.64;126308;1092;23210;-55
2021/08/20 02:00:31;;;;;;;8.83;2.17;;;;;;;17.70;71.61;100216.64;126082;1093;22800;-58
2021/08/20 02:03:03;;;;;;;11.00;2.50;;;;;;;17.69;71.71;100213.05;125825;1092;22770;-59
2021/08/20 02:05:36;;;;;;;9.70;2.20;;;;;;;17.70;71.42;100213.81;125754;1092;22857;-57
2021/08/20 02:08:08;;;;;;;10.70;2.90;;;;;;;17.68;71.52;100210.76;126218;1093;22800;-56
2021/08/20 02:10:40;;;;;;;8.35;2.65;;;;;;;17.67;71.86;100209.98;126164;1092;22793;-56
2021/08/20 02:13:11;;;;;;;11.70;2.60;;;;;;;17.67;71.63;100207.16;126200;1093;22745;-56
2021/08/20 02:15:43;;;;;;;8.27;2.13;;;;;;;17.66;71.95;100213.34;126325;1093;22794;-57
2021/08/20 02:18:15;;;;;;;11.87;2.60;;;;;;;17.65;72.08;100203.33;126150;1093;22800;-57
2021/08/20 02:20:48;;;;;;;11.33;2.43;;;;;;;17.64;71.69;100208.23;126050;1092;22974;-59
2021/08/20 02:23:21;;;;;;;13.13;2.83;;;;;;;17.63;71.82;100203.87;126135;1092;26245;-58
2021/08/20 02:25:53;;;;;;;10.97;2.70;;;;;;;17.63;72.03;100201.05;126099;1093;25784;-57
2021/08/20 02:28:24;;;;;;;10.27;2.57;;;;;;;17.63;72.11;100200.27;126272;1093;22767;-56
2021/08/20 02:30:57;;;;;;;14.75;2.70;;;;;;;17.61;72.23;100200.03;126036;1093;22794;-56
2021/08/20 02:33:29;;;;;;;8.70;2.20;;;;;;;17.59;72.10;100203.39;126194;1092;25646;-55
2021/08/20 02:36:02;;;;;;;11.28;2.60;;;;;;;17.59;71.97;100194.93;126221;1092;22843;-56
2021/08/20 02:38:34;;;;;;;9.77;2.27;;;;;;;17.59;72.18;100197.75;126310;1092;22792;-57
2021/08/20 02:41:06;;;;;;;12.40;2.95;;;;;;;17.58;72.11;100193.41;126154;1093;22805;-59
2021/08/20 02:43:38;;;;;;;9.77;2.90;;;;;;;17.56;72.50;100198.05;126208;1092;22820;-58
2021/08/20 02:46:09;;;;;;;8.35;2.55;;;;;;;17.55;72.24;100191.64;126091;1092;27189;-55
2021/08/20 02:48:42;;;;;;;7.53;2.20;;;;;;;17.55;72.47;100197.28;126070;1092;22773;-57
2021/08/20 02:51:14;;;;;;;9.77;2.43;;;;;;;17.55;72.82;100190.86;126182;1092;22781;-59
2021/08/20 02:53:46;;;;;;;8.47;2.80;;;;;;;17.53;72.52;100191.40;126286;1093;22778;-57
2021/08/20 02:56:18;;;;;;;10.77;2.50;;;;;;;17.52;72.82;100191.94;126162;1092;22770;-61
2021/08/20 02:58:49;;;;;;;9.95;2.60;;;;;;;17.51;72.58;100193.98;126445;1092;24543;-60
2021/08/20 03:01:21;;;;;;;9.18;2.30;;;;;;;17.51;72.88;100196.04;126267;1092;23052;-56
2021/08/20 03:03:52;;;;;;;10.83;2.43;;;;;;;17.50;72.99;100195.30;126145;1093;22837;-56
2021/08/20 03:06:24;;;;;;;13.07;2.80;;;;;;;17.49;72.71;100188.11;126182;1093;22928;-54
2021/08/20 03:08:55;;;;;;;8.95;2.50;;;;;;;17.49;72.97;100198.59;126379;1093;22948;-56
2021/08/20 03:11:28;;;;;;;8.43;2.50;;;;;;;17.49;73.07;100199.39;126152;1093;22793;-55
2021/08/20 03:14:00;;;;;;;12.73;3.17;;;;;;;17.48;73.05;100197.85;126172;1093;22816;-57
2021/08/20 03:16:31;;;;;;;16.67;3.00;;;;;;;17.47;73.11;100196.31;126122;1092;22785;-58
2021/08/20 03:19:03;;;;;;;11.97;2.60;;;;;;;17.48;73.02;100197.85;126237;1092;22763;-60
2021/08/20 03:21:34;;;;;;;10.40;3.10;;;;;;;17.46;73.40;100202.48;126296;1092;22816;-56
2021/08/20 03:24:07;;;;;;;9.80;2.50;;;;;;;17.44;73.33;100202.99;126311;1093;22847;-59
2021/08/20 03:26:38;;;;;;;13.73;2.67;;;;;;;17.44;73.30;100194.53;126211;1093;22726;-58
2021/08/20 03:29:09;;;;;;;11.97;2.80;;;;;;;17.45;73.15;100206.59;126087;1093;22938;-58
2021/08/20 03:31:42;;;;;;;9.90;2.95;;;;;;;17.45;73.19;100203.77;126262;1093;22735;-58
2021/08/20 03:34:13;;;;;;;14.00;3.07;;;;;;;17.44;73.52;100205.81;126117;1092;25732;-56
2021/08/20 03:36:45;;;;;;;14.60;2.70;;;;;;;17.44;73.59;100202.25;126096;1091;22737;-57
2021/08/20 03:39:17;;;;;;;10.97;2.97;;;;;;;17.44;73.68;100210.72;126261;1093;22847;-55
2021/08/20 03:41:49;;;;;;;11.33;2.67;;;;;;;17.42;73.85;100204.84;126143;1093;22801;-56
2021/08/20 03:44:20;;;;;;;8.50;2.80;;;;;;;17.41;73.67;100209.70;126245;1093;25789;-56
2021/08/20 03:46:52;;;;;;;11.73;2.83;;;;;;;17.41;73.93;100206.11;126294;1093;22847;-57
2021/08/20 03:49:24;;;;;;;11.07;2.90;;;;;;;17.41;73.66;100211.76;126264;1093;23378;-60
2021/08/20 03:51:55;;;;;;;7.60;2.50;;;;;;;17.38;73.96;100210.75;126198;1093;22847;-54
2021/08/20 03:54:27;;;;;;;11.03;2.27;;;;;;;17.38;74.10;100215.66;126201;1093;27580;-57
2021/08/20 03:57:07;;;;;;;11.05;2.60;;;;;;;17.38;73.87;100222.03;126410;1093;22767;-59
2021/08/20 03:59:39;;;;;;;9.00;2.60;;;;;;;17.38;73.67;100222.03;126180;1092;22825;-57
2021/08/20 04:02:10;;;;;;;12.85;2.50;;;;;;;17.38;73.71;100222.03;126183;1093;22788;-57
2021/08/20 04:04:41;;;;;;;9.17;2.73;;;;;;;17.37;73.59;100237.45;126199;1093;22723;-57
2021/08/20 04:07:19;;;;;;;10.83;2.80;;;;;;;17.38;73.60;100235.41;126251;1092;22735;-54
2021/08/20 04:09:51;;;;;;;8.30;2.57;;;;;;;17.38;74.16;100232.58;126118;1092;22786;-57
2021/08/20 04:12:23;;;;;;;10.07;2.73;;;;;;;17.39;73.74;100234.09;126084;1091;22727;-57
2021/08/20 04:14:54;;;;;;;12.73;2.93;;;;;;;17.39;73.77;100228.45;126230;1092;27565;-55
2021/08/20 04:17:27;;;;;;;8.95;2.90;;;;;;;17.39;74.16;100234.87;126172;1092;26791;-59
2021/08/20 04:19:58;;;;;;;6.90;2.40;;;;;;;17.40;73.98;100242.03;126217;1093;22821;-57
2021/08/20 04:22:30;;;;;;;9.45;3.00;;;;;;;17.41;74.24;100234.33;126167;1092;27861;-58
2021/08/20 04:25:03;;;;;;;11.40;2.90;;;;;;;17.41;74.24;100240.75;126138;1092;27346;-54
2021/08/20 04:27:34;;;;;;;7.23;2.60;;;;;;;17.41;74.05;100246.39;126272;1093;26947;-55
2021/08/20 04:30:07;;;;;;;11.00;3.13;;;;;;;17.43;74.17;100243.81;126250;1093;22829;-59
2021/08/20 04:32:39;;;;;;;10.30;2.50;;;;;;;17.43;74.02;100243.81;126208;1093;22768;-57
2021/08/20 04:35:12;;;;;;;10.27;2.57;;;;;;;17.42;74.11;100244.34;126270;1092;22793;-55
2021/08/20 04:37:44;;;;;;;9.33;2.90;;;;;;;17.43;74.37;100234.57;126278;1093;22942;-55
2021/08/20 04:40:17;;;;;;;7.87;2.57;;;;;;;17.43;74.18;100234.57;126081;1093;22843;-63
2021/08/20 04:42:48;;;;;;;11.70;2.90;;;;;;;17.44;74.47;100241.77;125967;1093;22932;-55
2021/08/20 04:45:22;;;;;;;10.20;3.30;;;;;;;17.44;74.34;100242.50;126023;1092;22808;-58
2021/08/20 04:47:54;;;;;;;12.50;3.17;;;;;;;17.44;74.27;100242.50;126096;1093;22801;-60
2021/08/20 04:50:29;;;;;;;14.27;3.13;;;;;;;17.45;74.37;100232.77;126092;1093;27673;-58
2021/08/20 04:53:01;;;;;;;10.87;3.17;;;;;;;17.48;74.13;100239.41;126358;1093;22781;-55
2021/08/20 04:55:32;;;;;;;8.57;2.80;;;;;;;17.48;74.01;100242.23;125975;1092;27192;-58
2021/08/20 04:58:04;;;;;;;12.03;3.37;;;;;;;17.48;74.09;100239.41;126168;1093;22822;-59
2021/08/20 05:00:38;;;;;;;14.95;3.80;;;;;;;17.49;74.18;100243.75;126202;1092;24422;-59
2021/08/20 05:03:09;;;;;;;13.20;3.93;;;;;;;17.49;74.36;100236.09;126364;1093;27642;-60
2021/08/20 05:05:45;;;;;;;13.60;5.47;;;;;;;17.51;74.58;100244.79;126090;1093;22799;-60
2021/08/20 05:08:17;;;;;;;19.05;5.80;;;;;;;17.53;74.22;100247.85;125958;1092;22783;-62
2021/08/20 05:10:49;;;;;;;14.80;4.75;;;;;;;17.56;74.37;100241.17;125759;1093;22936;-62
2021/08/20 05:13:21;;;;;;;17.30;4.70;;;;;;;17.58;74.60;100235.76;125921;1093;22770;-63
2021/08/20 05:15:52;;;;;;;16.90;4.80;;;;;;;17.60;74.32;100238.05;125851;1092;22797;-63
2021/08/20 05:18:23;;;;;;;12.20;3.70;;;;;;;17.63;74.63;100242.62;125759;1093;24477;-63
2021/08/20 05:20:55;;;;;;;23.05;11.95;;;;;;;17.66;74.83;100241.58;125831;1093;22797;-62
2021/08/20 05:23:26;;;;;;;54.80;29.30;;;;;;;17.66;74.61;100245.17;125733;1091;25926;-62
2021/08/20 05:25:59;;;;;;;57.98;31.58;;;;;;;17.68;74.45;100244.63;126086;1092;22771;-62
2021/08/20 05:28:31;;;;;;;36.13;18.73;;;;;;;17.69;74.65;100246.92;125892;1092;27280;-62
2021/08/20 05:31:02;;;;;;;23.57;10.30;;;;;;;17.70;74.49;100242.82;125918;1092;22767;-63
2021/08/20 05:33:34;;;;;;;18.30;6.80;;;;;;;17.73;74.43;100241.00;125814;1092;27648;-63
2021/08/20 05:36:06;;;;;;;25.25;9.65;;;;;;;17.76;74.52;100243.52;125871;1093;23324;-61
2021/08/20 05:38:39;;;;;;;31.50;12.87;;;;;;;17.79;74.51;100247.36;125921;1092;22828;-63
2021/08/20 05:41:11;;;;;;;30.45;11.80;;;;;;;17.80;74.92;100251.70;125938;1093;24452;-63
2021/08/20 05:43:43;;;;;;;25.37;11.17;;;;;;;17.82;74.90;100249.11;125973;1092;22798;-63
2021/08/20 05:46:15;;;;;;;26.60;10.77;;;;;;;17.84;74.84;100243.70;125752;1093;27652;-63
2021/08/20 05:48:47;;;;;;;25.17;8.90;;;;;;;17.88;74.62;100249.07;125886;1093;22767;-63
2021/08/20 05:51:18;;;;;;;18.80;7.77;;;;;;;17.91;74.88;100248.00;125872;1093;22767;-63
2021/08/20 05:53:50;;;;;;;22.25;6.85;;;;;;;17.95;74.88;100243.59;126025;1093;25849;-68
2021/08/20 05:56:21;;;;;;;15.30;6.27;;;;;;;17.99;74.64;100246.88;125610;1093;27195;-63
2021/08/20 05:58:53;;;;;;;20.97;6.30;;;;;;;18.03;74.67;100243.75;125634;1092;27185;-63
2021/08/20 06:01:25;;;;;;;12.53;4.10;;;;;;;18.05;74.64;100244.75;125760;1093;23633;-62
2021/08/20 06:03:57;;;;;;;13.50;4.75;;;;;;;18.09;74.90;100239.57;127029;1093;22800;-63
2021/08/20 06:06:29;;;;;;;13.90;4.27;;;;;;;18.13;74.96;100245.69;125626;1093;22780;-62
2021/08/20 06:09:01;;;;;;;9.33;3.47;;;;;;;18.19;74.99;100254.09;125716;1092;27648;-63
2021/08/20 06:11:32;;;;;;;12.37;3.80;;;;;;;18.22;74.79;100253.04;126415;1092;22769;-63
2021/08/20 06:14:04;;;;;;;9.80;2.80;;;;;;;18.26;74.78;100251.45;125569;1093;24187;-63
2021/08/20 06:16:36;;;;;;;6.60;1.95;;;;;;;18.30;74.44;100257.56;125887;1092;24622;-63
2021/08/20 06:19:08;;;;;;;8.30;2.23;;;;;;;18.35;74.52;100255.97;125599;1093;22781;-62
2021/08/20 06:21:39;;;;;;;7.58;2.10;;;;;;;18.38;74.64;100261.31;126043;1093;22825;-63
2021/08/20 06:24:11;;;;;;;9.33;2.13;;;;;;;18.42;74.67;100258.95;125543;1093;23315;-62
2021/08/20 06:26:45;;;;;;;8.38;2.20;;;;;;;18.45;74.34;100263.58;125612;1092;22797;-63
2021/08/20 06:29:20;;;;;;;6.90;1.70;;;;;;;18.51;74.18;100267.09;125613;1092;22825;-64
2021/08/20 06:31:51;;;;;;;5.20;1.37;;;;;;;18.56;73.90;100262.64;126211;1093;22809;-63
2021/08/20 06:34:23;;;;;;;6.05;1.55;;;;;;;18.61;74.29;100264.65;125656;1093;25846;-63
2021/08/20 06:36:55;;;;;;;8.13;1.70;;;;;;;18.68;74.12;100263.28;125712;1093;22829;-63
2021/08/20 06:39:26;;;;;;;7.83;1.63;;;;;;;18.74;74.15;100263.97;126016;1093;23547;-63
2021/08/20 06:41:59;;;;;;;7.63;1.70;;;;;;;18.82;73.70;100270.53;126300;1093;22748;-63
2021/08/20 06:44:32;;;;;;;7.03;1.53;;;;;;;18.89;73.92;100267.84;126026;1093;27760;-63
2021/08/20 06:47:04;;;;;;;5.97;1.53;;;;;;;18.94;73.71;100274.73;125912;1093;22767;-63
2021/08/20 06:49:36;;;;;;;7.85;1.70;;;;;;;18.99;73.59;100273.90;125823;1092;25874;-63
2021/08/20 06:52:10;;;;;;;8.53;1.90;;;;;;;19.04;73.01;100268.14;125719;1093;22855;-70
2021/08/20 06:54:42;;;;;;;8.00;1.40;;;;;;;19.09;73.36;100270.14;125843;1093;22770;-62
2021/08/20 06:57:14;;;;;;;9.33;1.80;;;;;;;19.17;72.88;100278.77;125665;1093;27710;-63
2021/08/20 06:59:45;;;;;;;11.05;1.60;;;;;;;19.22;72.65;100273.00;125824;1092;22767;-63
2021/08/20 07:02:17;;;;;;;7.23;1.50;;;;;;;19.28;72.74;100267.28;125620;1093;22824;-64
2021/08/20 07:04:49;;;;;;;7.67;1.80;;;;;;;19.34;72.52;100270.81;125765;1093;22794;-63
2021/08/20 07:07:21;;;;;;;13.60;2.30;;;;;;;19.40;72.35;100270.71;125729;1092;26287;-63
2021/08/20 07:09:53;;;;;;;9.40;1.40;;;;;;;19.45;72.32;100270.61;125707;1093;22796;-62
2021/08/20 07:12:24;;;;;;;7.55;1.43;;;;;;;19.50;72.00;100281.09;125705;1093;22803;-63
2021/08/20 07:14:56;;;;;;;8.15;1.45;;;;;;;19.54;72.09;100278.70;125752;1093;22770;-63
2021/08/20 07:17:27;;;;;;;51.60;38.70;;;;;;;19.63;72.32;100278.30;125720;1093;23396;-63
2021/08/20 07:19:59;;;;;;;14.58;7.68;;;;;;;19.69;71.61;100278.97;125642;1092;22821;-63
2021/08/20 07:22:31;;;;;;;11.53;1.75;;;;;;;19.76;72.14;100278.31;125660;1092;22788;-62
2021/08/20 07:25:02;;;;;;;7.33;1.70;;;;;;;19.84;71.30;100289.78;125708;1093;22774;-63
2021/08/20 07:27:34;;;;;;;7.05;1.48;;;;;;;19.89;70.98;100283.23;125621;1093;22776;-62
2021/08/20 07:30:06;;;;;;;6.57;1.37;;;;;;;19.97;71.11;100284.11;125687;1092;25874;-62
2021/08/20 07:32:37;;;;;;;7.35;1.18;;;;;;;20.05;70.81;100282.92;125845;1093;27070;-63
2021/08/20 07:35:10;;;;;;;5.50;1.53;;;;;;;20.13;70.85;100286.63;125683;1092;22797;-62
2021/08/20 07:37:42;;;;;;;4.90;1.33;;;;;;;20.18;70.52;100282.94;126055;1092;24470;-62
2021/08/20 07:40:15;;;;;;;4.70;1.28;;;;;;;20.20;69.74;100282.42;125634;1092;24496;-63
2021/08/20 07:42:47;;;;;;;7.85;1.40;;;;;;;20.23;70.02;100283.41;125709;1093;22770;-62
2021/08/20 07:45:19;;;;;;;6.90;1.15;;;;;;;20.26;69.61;100280.23;125667;1093;22746;-62
2021/08/20 07:47:52;;;;;;;7.43;1.37;;;;;;;20.35;69.80;100279.03;125800;1092;22794;-62
2021/08/20 07:50:24;;;;;;;5.10;1.55;;;;;;;20.46;69.80;100284.48;125774;1093;26280;-62
2021/08/20 07:52:55;;;;;;;8.13;1.40;;;;;;;20.56;69.54;100289.17;125795;1092;25874;-63
2021/08/20 07:55:27;;;;;;;11.37;1.60;;;;;;;20.66;68.89;100278.90;125729;1092;26251;-62
2021/08/20 07:57:58;;;;;;;8.60;1.45;;;;;;;20.74;68.44;100278.98;125693;1093;25877;-64
2021/08/20 08:00:31;;;;;;;6.33;1.65;;;;;;;20.84;68.31;100277.20;125992;1093;22914;-62
2021/08/20 08:03:03;;;;;;;8.23;1.70;;;;;;;20.97;68.62;100288.53;125815;1093;27180;-62
2021/08/20 08:05:34;;;;;;;4.78;1.33;;;;;;;21.15;67.99;100281.17;125750;1093;22778;-63
2021/08/20 08:08:06;;;;;;;4.20;1.30;;;;;;;21.25;66.40;100279.41;125612;1093;22768;-62
2021/08/20 08:10:41;;;;;;;7.28;1.30;;;;;;;21.32;66.97;100279.47;125619;1093;22773;-63
2021/08/20 08:13:12;;;;;;;8.25;1.33;;;;;;;21.47;66.39;100282.47;125658;1091;22829;-63
2021/08/20 08:15:45;;;;;;;6.18;1.20;;;;;;;21.64;65.18;100284.89;125819;1093;24493;-62
2021/08/20 08:18:17;;;;;;;4.83;1.37;;;;;;;21.73;64.74;100282.31;125608;1092;27589;-64
2021/08/20 08:20:49;;;;;;;5.25;1.50;;;;;;;21.78;64.54;100277.80;125659;1093;27185;-62
2021/08/20 08:23:21;;;;;;;6.05;1.40;;;;;;;21.87;65.08;100276.58;127814;1093;25278;-64
2021/08/20 08:25:53;;;;;;;7.98;1.48;;;;;;;21.98;64.37;100285.56;125614;1092;22799;-63
2021/08/20 08:28:25;;;;;;;5.68;1.45;;;;;;;22.07;64.12;100281.45;125637;1093;27214;-63
2021/08/20 08:31:01;;;;;;;9.80;1.75;;;;;;;22.10;63.49;100280.35;125788;1093;26245;-65
2021/08/20 08:33:33;;;;;;;12.10;1.63;;;;;;;22.16;63.85;100280.95;125674;1092;27182;-63
2021/08/20 08:36:05;;;;;;;5.53;1.45;;;;;;;22.23;63.79;100274.54;125716;1093;26286;-64
2021/08/20 08:38:37;;;;;;;9.03;1.60;;;;;;;22.27;63.27;100284.24;125665;1093;26248;-62
2021/08/20 08:41:09;;;;;;;5.90;1.60;;;;;;;22.27;62.55;100280.63;125882;1093;24471;-62
2021/08/20 08:43:41;;;;;;;5.40;1.45;;;;;;;22.29;62.59;100278.76;125560;1093;22783;-63
2021/08/20 08:46:19;;;;;;;9.80;2.00;;;;;;;22.30;61.78;100270.99;125650;1093;24432;-63
2021/08/20 08:48:52;;;;;;;9.00;1.75;;;;;;;22.27;61.69;100281.40;125608;1093;27638;-63
2021/08/20 08:51:23;;;;;;;5.13;1.30;;;;;;;22.23;61.59;100275.31;125689;1093;22801;-63
2021/08/20 08:53:55;;;;;;;6.93;1.60;;;;;;;22.26;61.74;100277.02;125724;1093;27317;-62
2021/08/20 08:56:26;;;;;;;6.80;1.68;;;;;;;22.34;62.26;100271.39;126335;1093;22786;-63
2021/08/20 08:58:59;;;;;;;6.08;1.35;;;;;;;22.39;61.88;100276.91;125572;1093;22741;-62
2021/08/20 09:01:32;;;;;;;8.60;1.50;;;;;;;22.44;61.16;100272.39;125589;1093;25845;-63
2021/08/20 09:04:18;;;;;;;6.63;1.90;;;;;;;22.47;61.19;100271.28;126210;1093;22773;-63
2021/08/20 09:06:52;;;;;;;6.10;1.28;;;;;;;22.48;60.65;100272.79;125508;1093;22771;-63
2021/08/20 09:09:27;;;;;;;8.58;1.70;;;;;;;22.48;60.65;100282.09;125695;1093;22787;-62
2021/08/20 09:12:06;;;;;;;7.55;1.60;;;;;;;22.52;60.58;100276.03;125877;1093;25957;-63
2021/08/20 09:14:39;;;;;;;6.68;1.40;;;;;;;22.54;60.21;100285.53;125768;1093;22848;-63
2021/08/20 09:17:12;;;;;;;7.10;1.60;;;;;;;22.56;60.15;100282.12;125834;1093;22767;-64
2021/08/20 09:19:46;;;;;;;5.75;1.40;;;;;;;22.63;60.26;100280.67;125796;1093;27665;-64
2021/08/20 09:22:18;;;;;;;7.75;1.80;;;;;;;22.67;60.02;100278.22;125729;1093;22900;-63
2021/08/20 09:24:49;;;;;;;6.20;1.25;;;;;;;22.72;59.85;100282.99;125626;1091;22797;-62
2021/08/20 09:27:24;;;;;;;6.03;1.25;;;;;;;22.80;59.18;100281.67;125633;1093;27778;-63
2021/08/20 09:30:08;;;;;;;9.95;1.48;;;;;;;22.85;59.53;100275.06;125881;1092;22844;-64
2021/08/20 09:32:46;;;;;;;4.80;1.38;;;;;;;22.91;59.29;100274.89;125825;1093;22786;-63
2021/08/20 09:35:20;;;;;;;6.33;1.70;;;;;;;22.95;59.34;100276.05;125739;1092;26727;-63
2021/08/20 09:37:52;;;;;;;5.35;1.30;;;;;;;23.02;59.17;100281.02;126150;1093;22987;-63
2021/08/20 09:40:27;;;;;;;6.33;1.40;;;;;;;23.05;58.14;100274.17;125806;1093;26735;-63
2021/08/20 09:43:17;;;;;;;11.95;1.30;;;;;;;23.07;58.67;100276.48;125730;1092;25948;-64
2021/08/20 09:46:00;;;;;;;5.68;1.50;;;;;;;23.16;58.60;100268.13;125738;1093;22835;-62
2021/08/20 09:48:53;;;;;;;6.05;1.20;;;;;;;23.20;58.03;100268.52;125881;1093;26532;-63
2021/08/20 09:51:39;;;;;;;6.63;1.50;;;;;;;23.25;57.89;100276.14;125711;1093;22800;-63
2021/08/20 09:54:13;;;;;;;7.85;1.48;;;;;;;23.30;58.02;100268.72;126007;1092;22786;-63
2021/08/20 09:56:48;;;;;;;4.03;1.20;;;;;;;23.35;57.79;100272.75;125721;1093;24623;-63
2021/08/20 09:59:30;;;;;;;5.43;1.08;;;;;;;23.33;57.12;100272.55;125680;1093;26695;-63
2021/08/20 10:02:03;;;;;;;6.37;1.50;;;;;;;23.36;57.10;100268.59;125894;1093;22751;-63
2021/08/20 10:04:38;;;;;;;5.48;1.10;;;;;;;23.37;57.46;100270.86;125896;1092;22802;-63
2021/08/20 10:07:10;;;;;;;6.03;1.10;;;;;;;23.42;56.78;100269.92;125671;1092;22857;-63
2021/08/20 10:09:44;;;;;;;5.95;1.48;;;;;;;23.44;56.48;100272.20;125733;1093;22778;-63
2021/08/20 10:12:22;;;;;;;6.80;1.30;;;;;;;23.45;56.56;100271.63;126007;1093;27785;-64
2021/08/20 10:14:55;;;;;;;2.90;0.90;;;;;;;23.47;56.47;100260.42;126033;1092;22749;-63
2021/08/20 10:17:28;;;;;;;4.60;1.20;;;;;;;23.52;56.48;100265.19;125695;1093;22779;-63
2021/08/20 10:20:00;;;;;;;4.23;1.13;;;;;;;23.61;56.58;100261.75;125667;1092;22755;-63
2021/08/20 10:22:32;;;;;;;7.23;1.28;;;;;;;23.71;56.57;100256.26;125599;1093;27641;-63
2021/08/20 10:25:04;;;;;;;3.75;1.10;;;;;;;23.78;56.08;100255.47;125715;1093;23056;-63
2021/08/20 10:27:39;;;;;;;5.40;1.18;;;;;;;23.84;55.79;100245.41;125747;1093;22868;-63
2021/08/20 10:30:12;;;;;;;5.77;1.20;;;;;;;23.81;55.25;100257.20;126654;1092;25877;-63
2021/08/20 10:33:01;;;;;;;5.00;1.28;;;;;;;23.73;54.86;100265.00;125710;1093;22771;-63
2021/08/20 10:35:55;;;;;;;10.00;1.30;;;;;;;23.67;55.12;100259.47;125777;1093;22810;-63
2021/08/20 10:38:28;;;;;;;5.38;1.13;;;;;;;23.64;55.25;100259.85;125903;1093;22931;-63
2021/08/20 10:41:18;;;;;;;6.00;1.50;;;;;;;23.62;54.64;100263.28;125764;1093;26255;-64
2021/08/20 10:44:01;;;;;;;7.45;1.30;;;;;;;23.58;55.15;100262.13;125731;1093;26314;-62
2021/08/20 10:47:00;;;;;;;3.55;1.10;;;;;;;23.61;55.43;100256.05;125788;1092;26245;-63
2021/08/20 10:49:40;;;;;;;6.65;1.03;;;;;;;23.69;55.22;100250.37;125832;1093;22855;-63
2021/08/20 10:52:22;;;;;;;3.60;1.10;;;;;;;23.78;55.43;100244.08;125820;1093;22845;-63
2021/08/20 10:55:16;;;;;;;4.23;1.10;;;;;;;23.84;54.83;100247.48;125795;1093;22771;-63
2021/08/20 10:58:19;;;;;;;8.55;2.18;;;;;;;23.86;54.60;100253.38;125705;1093;22797;-62
2021/08/20 11:01:00;;;;;;;4.28;1.13;;;;;;;23.92;54.54;100253.94;125832;1093;22767;-63
2021/08/20 11:03:49;;;;;;;4.83;1.30;;;;;;;23.94;54.29;100262.70;125753;1093;22899;-63
2021/08/20 11:06:53;;;;;;;11.07;1.70;;;;;;;23.91;54.47;100260.98;125675;1093;25366;-63
2021/08/20 11:09:32;;;;;;;6.48;1.50;;;;;;;23.86;54.07;100257.00;125800;1097;25526;-67
2021/08/20 11:12:05;;;;;;;3.80;1.18;;;;;;;23.88;54.47;100262.88;125669;1096;22815;-63
2021/08/20 11:14:37;;;;;;;4.50;1.25;;;;;;;23.87;53.98;100249.97;125678;1095;22912;-64
2021/08/20 11:17:13;;;;;;;5.70;1.10;;;;;;;23.83;54.06;100258.16;125653;1097;22780;-62
2021/08/20 11:19:56;;;;;;;4.90;1.28;;;;;;;23.76;54.11;100260.98;125557;1095;26207;-63
2021/08/20 11:22:32;;;;;;;3.75;1.40;;;;;;;23.71;54.20;100256.26;125721;1096;22866;-64
2021/08/20 11:25:22;;;;;;;7.70;1.50;;;;;;;23.67;53.78;100256.62;125601;1096;22761;-62
2021/08/20 11:28:02;;;;;;;6.93;1.38;;;;;;;23.63;54.06;100256.23;125489;1095;22780;-64
2021/08/20 11:30:34;;;;;;;;;;;;;;;23.65;54.46;100252.84;125705;1096;22764;-63
2021/08/20 11:33:22;;;;;;;4.85;1.33;;;;;;;23.64;53.96;100251.30;125662;1096;21675;-63
2021/08/20 11:35:59;;;;;;;6.95;1.58;;;;;;;23.61;54.11;100250.34;125661;1096;24528;-63
2021/08/20 11:38:38;;;;;;;5.55;1.33;;;;;;;23.61;54.07;100246.77;126192;1096;24483;-63
2021/08/20 11:41:20;;;;;;;5.45;1.40;;;;;;;23.57;53.92;100252.08;125615;1096;24442;-63
2021/08/20 11:43:54;;;;;;;4.70;1.33;;;;;;;23.52;53.98;100241.62;125656;1096;22747;-63